createdAt,value
2023-01-28T00:03:40.039Z,101546.88
2023-01-28T00:08:42.942Z,101554.50
2023-01-28T00:13:47.064Z,101550.44
2023-01-28T00:18:51.755Z,101545.94
2023-01-28T00:23:56.833Z,101547.97
2023-01-28T00:29:01.102Z,101549.66
2023-01-28T00:34:03.980Z,101550.94
2023-01-28T00:39:08.249Z,101552.25
2023-01-28T00:44:12.605Z,101553.94
2023-01-28T00:49:15.530Z,101556.28
2023-01-28T00:54:18.521Z,101554.16
2023-01-28T00:59:22.716Z,101554.16
2023-01-28T01:04:27.434Z,101555.78
2023-01-28T01:09:30.212Z,101562.06
2023-01-28T01:14:34.411Z,101558.25
2023-01-28T01:19:38.254Z,101553.97
2023-01-28T01:24:41.060Z,101556.66
2023-01-28T01:29:45.237Z,101549.78
2023-01-28T01:34:47.993Z,101545.97
2023-01-28T01:39:50.738Z,101549.94
2023-01-28T01:44:57.995Z,101550.06
2023-01-28T01:50:03.007Z,101552.06
2023-01-28T01:55:09.917Z,101553.47
2023-01-28T02:00:14.866Z,101552.22
2023-01-28T02:05:19.522Z,101548.41
2023-01-28T02:10:23.072Z,101561.22
2023-01-28T02:15:27.304Z,101560.00
2023-01-28T02:20:42.496Z,101550.81
2023-01-28T02:26:14.403Z,101559.25
2023-01-28T02:31:20.823Z,101562.16
2023-01-28T02:36:29.554Z,101563.97
2023-01-28T02:41:34.656Z,101567.78
2023-01-28T02:46:56.688Z,101565.66
2023-01-28T02:52:18.382Z,101565.63
2023-01-28T02:57:30.536Z,101561.84
2023-01-28T03:02:38.418Z,101578.09
2023-01-28T03:07:41.919Z,101564.56
2023-01-28T03:13:03.260Z,101564.25
2023-01-28T03:18:26.904Z,101568.22
2023-01-28T03:23:51.790Z,101561.25
2023-01-28T03:29:13.740Z,101557.13
2023-01-28T03:34:36.439Z,101559.09
2023-01-28T03:39:39.647Z,101571.13
2023-01-28T03:44:51.769Z,101563.47
2023-01-28T03:49:59.535Z,101571.59
2023-01-28T03:55:14.266Z,101575.66
2023-01-28T04:00:20.411Z,101580.34
2023-01-28T04:05:25.442Z,101576.56
2023-01-28T04:10:29.295Z,101579.91
2023-01-28T04:15:46.381Z,101567.06
2023-01-28T04:20:52.043Z,101568.88
2023-01-28T04:25:54.975Z,101573.06
2023-01-28T04:31:00.125Z,101572.31
2023-01-28T04:36:19.545Z,101582.94
2023-01-28T04:41:41.072Z,101589.03
2023-01-28T04:46:52.701Z,101594.53
2023-01-28T04:52:15.189Z,101594.09
2023-01-28T04:57:34.245Z,101597.53
2023-01-28T05:02:37.231Z,101590.13
2023-01-28T05:07:41.367Z,101594.50
2023-01-28T05:12:45.228Z,101592.81
2023-01-28T05:17:48.625Z,101589.22
2023-01-28T05:22:55.871Z,101590.25
2023-01-28T05:28:01.825Z,101597.28
2023-01-28T05:33:04.774Z,101600.66
2023-01-28T05:38:09.080Z,101597.72
2023-01-28T05:43:11.864Z,101613.59
2023-01-28T05:48:19.956Z,101612.78
2023-01-28T05:53:49.813Z,101599.88
2023-01-28T05:58:52.499Z,101614.75
2023-01-28T06:03:55.483Z,101623.28
2023-01-28T06:08:59.764Z,101628.16
2023-01-28T06:14:05.878Z,101638.19
2023-01-28T06:19:23.642Z,101627.41
2023-01-28T06:24:27.888Z,101628.09
2023-01-28T06:29:30.723Z,101631.31
2023-01-28T06:34:33.769Z,101633.00
2023-01-28T06:39:38.969Z,101639.97
2023-01-28T06:44:41.713Z,101634.88
2023-01-28T06:49:44.398Z,101637.66
2023-01-28T06:54:48.832Z,101627.59
2023-01-28T06:59:51.544Z,101637.66
2023-01-28T07:04:54.277Z,101645.47
2023-01-28T07:09:58.347Z,101633.09
2023-01-28T07:15:01.110Z,101636.09
2023-01-28T07:20:05.215Z,101635.13
2023-01-28T07:25:10.505Z,101647.25
2023-01-28T07:30:14.217Z,101636.84
2023-01-28T07:35:17.398Z,101644.34
2023-01-28T07:40:21.832Z,101651.44
2023-01-28T07:45:25.103Z,101644.25
2023-01-28T07:50:29.074Z,101644.38
2023-01-28T07:55:35.796Z,101658.75
2023-01-28T08:00:39.168Z,101670.34
2023-01-28T08:05:44.205Z,101682.72
2023-01-28T08:10:49.317Z,101679.31
2023-01-28T08:15:56.456Z,101700.22
2023-01-28T08:21:00.223Z,101709.53
2023-01-28T08:26:04.275Z,101724.44
2023-01-28T08:31:07.059Z,101733.59
2023-01-28T08:36:10.459Z,101747.78
2023-01-28T08:41:14.534Z,101750.22
2023-01-28T08:46:17.544Z,101779.59
2023-01-28T08:51:20.207Z,101781.44
2023-01-28T08:56:24.302Z,101796.75
2023-01-28T09:01:29.309Z,101795.41
2023-01-28T09:06:32.201Z,101811.94
2023-01-28T09:11:36.323Z,101837.28
2023-01-28T09:16:39.033Z,101842.84
2023-01-28T09:21:41.838Z,101856.09
2023-01-28T09:26:45.897Z,101856.31
2023-01-28T09:31:48.627Z,101864.88
2023-01-28T09:36:51.359Z,101875.94
2023-01-28T09:42:02.817Z,101884.38
2023-01-28T09:47:12.881Z,101897.41
2023-01-28T09:52:17.191Z,101899.81
2023-01-28T09:57:24.911Z,101885.63
2023-01-28T10:02:38.765Z,101904.75
2023-01-28T10:07:46.295Z,101898.41
2023-01-28T10:13:15.391Z,101898.97
2023-01-28T10:18:22.718Z,101895.72
2023-01-28T10:23:29.315Z,101893.34
2023-01-28T10:28:37.063Z,101881.34
2023-01-28T10:33:40.196Z,101885.25
2023-01-28T10:38:43.264Z,101894.19
2023-01-28T10:43:47.479Z,101884.94
2023-01-28T10:48:56.208Z,101881.81
2023-01-28T10:53:58.950Z,101889.25
2023-01-28T10:59:04.847Z,101891.13
2023-01-28T11:04:14.209Z,101910.63
2023-01-28T11:09:24.981Z,101929.81
2023-01-28T11:14:29.057Z,101927.59
2023-01-28T11:19:37.235Z,101914.88
2023-01-28T11:24:39.975Z,101923.66
2023-01-28T11:29:44.262Z,101930.34
2023-01-28T11:34:51.869Z,101921.09
2023-01-28T11:40:11.285Z,101913.44
2023-01-28T11:45:18.399Z,101915.19
2023-01-28T11:50:30.221Z,101906.41
2023-01-28T11:55:41.383Z,101903.94
2023-01-28T12:00:53.713Z,101892.00
2023-01-28T12:05:58.207Z,101890.81
2023-01-28T12:11:19.091Z,101894.84
2023-01-28T12:16:49.593Z,101891.13
2023-01-28T12:22:06.453Z,101881.81
2023-01-28T12:27:13.724Z,101871.97
2023-01-28T12:32:39.085Z,101861.38
2023-01-28T12:37:53.909Z,101848.75
2023-01-28T12:42:59.053Z,101838.06
2023-01-28T12:48:12.454Z,101796.97
2023-01-28T12:53:24.173Z,101788.72
2023-01-28T12:58:37.852Z,101778.16
2023-01-28T13:03:47.004Z,101770.38
2023-01-28T13:08:51.140Z,101756.44
2023-01-28T13:13:54.039Z,101770.78
2023-01-28T13:19:08.823Z,101784.13
2023-01-28T13:24:32.684Z,101788.13
2023-01-28T13:29:35.429Z,101800.50
2023-01-28T13:34:43.546Z,101789.66
2023-01-28T13:39:51.352Z,101818.38
2023-01-28T13:44:54.734Z,101827.25
2023-01-28T13:50:01.435Z,101834.72
2023-01-28T13:55:07.799Z,101840.16
2023-01-28T14:00:21.587Z,101845.63
2023-01-28T14:06:02.845Z,101862.34
2023-01-28T14:11:16.276Z,101866.63
2023-01-28T14:16:28.231Z,101837.53
2023-01-28T14:21:35.598Z,101839.41
2023-01-28T14:26:48.186Z,101808.25
2023-01-28T14:31:52.157Z,101783.19
2023-01-28T14:36:57.950Z,101774.22
2023-01-28T14:42:02.702Z,101768.88
2023-01-28T14:47:20.455Z,101783.19
2023-01-28T14:52:46.256Z,101789.25
2023-01-28T14:57:53.421Z,101799.28
2023-01-28T15:02:56.231Z,101798.59
2023-01-28T15:08:00.667Z,101805.13
2023-01-28T15:13:07.255Z,101818.44
2023-01-28T15:18:15.277Z,101807.22
2023-01-28T15:23:28.476Z,101816.44
2023-01-28T15:28:32.553Z,101827.78
2023-01-28T15:33:35.229Z,101830.69
2023-01-28T15:38:39.322Z,101834.59
2023-01-28T15:43:42.066Z,101835.09
2023-01-28T15:48:46.993Z,101825.75
2023-01-28T15:53:52.455Z,101829.66
2023-01-28T15:58:56.143Z,101828.31
2023-01-28T16:04:03.566Z,101836.81
2023-01-28T16:09:12.846Z,101857.66
2023-01-28T16:14:24.360Z,101862.59
2023-01-28T16:19:33.375Z,101871.09
2023-01-28T16:24:37.603Z,101861.00
2023-01-28T16:29:40.657Z,101872.47
2023-01-28T16:34:44.681Z,101875.47
2023-01-28T16:39:49.407Z,101880.50
2023-01-28T16:44:53.150Z,101885.41
2023-01-28T16:49:55.967Z,101861.50
2023-01-28T16:55:00.145Z,101858.06
2023-01-28T17:00:02.865Z,101826.91
2023-01-28T17:05:06.182Z,101826.50
2023-01-28T17:10:12.312Z,101828.53
2023-01-28T17:15:15.662Z,101839.47
2023-01-28T17:20:18.898Z,101829.25
2023-01-28T17:25:22.936Z,101851.69
2023-01-28T17:30:25.586Z,101843.59
2023-01-28T17:35:28.742Z,101856.53
2023-01-28T17:40:32.847Z,101867.81
2023-01-28T17:45:35.626Z,101877.66
2023-01-28T17:50:39.723Z,101867.56
2023-01-28T17:55:43.774Z,101861.03
2023-01-28T18:00:46.481Z,101836.19
2023-01-28T18:05:57.881Z,101831.75
2023-01-28T18:11:02.921Z,101825.81
2023-01-28T18:16:07.529Z,101851.34
2023-01-28T18:21:20.950Z,101849.78
2023-01-28T18:26:24.998Z,101850.38
2023-01-28T18:31:27.888Z,101848.28
2023-01-28T18:36:30.648Z,101845.41
2023-01-28T18:41:34.677Z,101848.75
2023-01-28T18:46:37.442Z,101844.34
2023-01-28T18:51:40.141Z,101856.25
2023-01-28T18:56:44.831Z,101858.59
2023-01-28T19:01:47.910Z,101855.75
2023-01-28T19:06:50.790Z,101853.66
2023-01-28T19:11:54.812Z,101848.63
2023-01-28T19:16:57.492Z,101856.47
2023-01-28T19:22:00.186Z,101862.16
2023-01-28T19:27:04.321Z,101864.47
2023-01-28T19:32:07.076Z,101861.59
2023-01-28T19:37:09.979Z,101858.00
2023-01-28T19:42:14.078Z,101864.91
2023-01-28T19:47:16.794Z,101857.25
2023-01-28T19:52:19.476Z,101859.13
2023-01-28T19:57:23.539Z,101850.25
2023-01-28T20:02:27.704Z,101842.59
2023-01-28T20:07:30.432Z,101836.22
2023-01-28T20:12:34.475Z,101831.09
2023-01-28T20:17:37.281Z,101828.94
2023-01-28T20:22:41.247Z,101816.00
2023-01-28T20:27:45.290Z,101818.59
2023-01-28T20:32:47.969Z,101810.72
2023-01-28T20:37:50.661Z,101799.59
2023-01-28T20:42:54.693Z,101797.84
2023-01-28T20:47:57.431Z,101775.03
2023-01-28T20:53:00.116Z,101766.81
2023-01-28T20:58:05.266Z,101758.66
2023-01-28T21:03:07.969Z,101764.78
2023-01-28T21:08:10.679Z,101761.19
2023-01-28T21:13:15.735Z,101770.75
2023-01-28T21:18:18.422Z,101762.41
2023-01-28T21:23:21.728Z,101765.56
2023-01-28T21:28:26.832Z,101749.00
2023-01-28T21:33:29.529Z,101759.50
2023-01-28T21:38:32.191Z,101756.25
2023-01-28T21:43:36.893Z,101743.78
2023-01-28T21:48:39.549Z,101750.03
2023-01-28T21:53:43.026Z,101761.16
2023-01-28T21:59:04.635Z,101756.41
2023-01-28T22:04:07.363Z,101752.66
2023-01-28T22:09:11.757Z,101750.66
2023-01-28T22:14:16.243Z,101754.84
2023-01-28T22:19:18.998Z,101751.84
2023-01-28T22:24:24.239Z,101738.03
2023-01-28T22:29:28.671Z,101742.13
2023-01-28T22:34:31.498Z,101745.25
2023-01-28T22:39:34.151Z,101729.28
2023-01-28T22:44:38.186Z,101721.53
2023-01-28T22:49:40.843Z,101726.88
2023-01-28T22:54:43.479Z,101732.38
2023-01-28T22:59:59.623Z,101712.59
2023-01-28T23:05:03.238Z,101710.88
2023-01-28T23:10:07.017Z,101701.28
2023-01-28T23:15:28.953Z,101701.13
2023-01-28T23:20:49.460Z,101699.06
2023-01-28T23:25:52.186Z,101697.50
2023-01-28T23:30:56.417Z,101703.53
2023-01-28T23:35:59.555Z,101701.69
2023-01-28T23:41:02.536Z,101690.22
2023-01-28T23:46:06.736Z,101688.00
2023-01-28T23:51:09.816Z,101672.50
2023-01-28T23:56:12.742Z,101658.50
